Time,TemperatureF,DewpointF,PressureIn,WindDirection,WindDirectionDegrees,WindSpeedMPH,WindSpeedGustMPH,Humidity,HourlyPrecipIn,Conditions,Clouds,dailyrainin,SolarRadiationWatts/m^2,SoftwareType,DateUTC
2013-07-17 00:29:00,70.1,68.3,30.16,SE,140,0.0,0.0,94,0.00,CLR,,0.04,0.0,WeatherDisplay:10.37,2013-07-17 04:29:00,
2013-07-17 00:59:00,69.8,68.0,30.15,SE,140,0.0,0.0,94,0.00,CLR,,0.04,0.0,WeatherDisplay:10.37,2013-07-17 04:59:00,
2013-07-17 01:29:00,69.3,67.5,30.15,SE,140,0.0,0.0,94,0.00,CLR,,0.04,0.0,WeatherDisplay:10.37,2013-07-17 05:29:00,
2013-07-17 01:59:00,69.1,67.6,30.14,SE,140,0.0,1.0,95,0.00,RA,,0.00,0.0,WeatherDisplay:10.37,2013-07-17 05:59:00,
2013-07-17 02:29:00,68.8,67.3,30.14,SE,140,0.0,1.0,95,0.00,CLR,,0.00,0.0,WeatherDisplay:10.37,2013-07-17 06:29:00,
2013-07-17 02:59:00,68.5,67.0,30.14,SE,140,0.0,0.0,95,0.00,CLR,,0.00,0.0,WeatherDisplay:10.37,2013-07-17 06:59:00,
2013-07-17 03:29:00,68.2,66.7,30.14,SE,140,0.0,0.0,95,0.00,CLR,,0.00,0.0,WeatherDisplay:10.37,2013-07-17 07:29:00,
2013-07-17 03:59:00,68.0,66.5,30.14,SE,140,0.0,0.0,95,0.00,CLR,,0.00,0.0,WeatherDisplay:10.37,2013-07-17 07:59:00,
2013-07-17 04:29:00,67.7,66.5,30.14,SE,140,0.0,0.0,96,0.00,CLR,,0.00,0.0,WeatherDisplay:10.37,2013-07-17 08:29:00,
2013-07-17 04:59:00,67.5,66.3,30.15,SE,140,0.0,0.0,96,0.00,OVC,,0.00,0.0,WeatherDisplay:10.37,2013-07-17 08:59:00,
2013-07-17 05:29:00,67.3,66.1,30.16,SE,140,0.0,0.0,96,0.00,BKN,,0.00,7.0,WeatherDisplay:10.37,2013-07-17 09:29:00,
2013-07-17 05:59:00,67.5,66.3,30.16,SE,140,0.0,0.0,96,0.00,BKN,,0.00,35.0,WeatherDisplay:10.37,2013-07-17 09:59:00,
2013-07-17 06:29:00,68.8,67.9,30.17,SE,140,0.0,0.0,97,0.00,SCT,,0.00,111.0,WeatherDisplay:10.37,2013-07-17 10:29:00,
2013-07-17 06:59:00,70.6,69.4,30.16,SE,140,0.0,0.0,96,0.00,FEW,,0.00,174.0,WeatherDisplay:10.37,2013-07-17 10:59:00,
2013-07-17 07:29:00,73.0,71.5,30.17,SE,140,0.0,1.0,95,0.00,FEW,,0.00,272.0,WeatherDisplay:10.37,2013-07-17 11:29:00,
2013-07-17 07:59:00,76.7,72.6,30.16,SE,140,0.0,1.0,87,0.00,FEW,,0.00,334.0,WeatherDisplay:10.37,2013-07-17 11:59:00,
2013-07-17 08:29:00,80.5,73.4,30.16,East,93,1.0,2.0,79,0.00,FEW,,0.00,415.0,WeatherDisplay:10.37,2013-07-17 12:29:00,
2013-07-17 08:59:00,81.8,75.4,30.17,East,88,0.0,2.0,81,0.00,FEW,,0.00,489.0,WeatherDisplay:10.37,2013-07-17 12:59:00,
2013-07-17 09:29:00,84.5,76.1,30.16,SE,134,0.0,3.0,76,0.00,FEW,,0.00,566.0,WeatherDisplay:10.37,2013-07-17 13:29:00,
2013-07-17 09:59:00,85.9,75.0,30.16,SSE,153,0.0,5.0,70,0.00,FEW,,0.00,643.0,WeatherDisplay:10.37,2013-07-17 13:59:00,
2013-07-17 10:29:00,86.5,74.2,30.15,South,171,1.0,8.0,67,0.00,FEW,,0.00,717.0,WeatherDisplay:10.37,2013-07-17 14:29:00,
2013-07-17 10:59:00,88.4,72.2,30.15,SSE,162,0.0,5.0,59,0.00,FEW,,0.00,793.0,WeatherDisplay:10.37,2013-07-17 14:59:00,
2013-07-17 11:30:00,88.4,75.6,30.14,SSE,153,0.0,5.0,66,0.00,FEW,,0.00,775.0,WeatherDisplay:10.37,2013-07-17 15:30:00,
2013-07-17 11:59:00,89.5,75.2,30.13,SSE,165,0.0,6.0,63,0.00,FEW,,0.00,826.0,WeatherDisplay:10.37,2013-07-17 15:59:00,
2013-07-17 12:29:00,90.6,73.3,30.12,SSW,196,1.0,6.0,57,0.00,FEW,,0.00,858.0,WeatherDisplay:10.37,2013-07-17 16:29:00,
2013-07-17 12:59:00,91.0,72.6,30.11,East,86,0.0,5.0,55,0.00,FEW,,0.00,856.0,WeatherDisplay:10.37,2013-07-17 16:59:00,
2013-07-17 13:29:00,91.3,75.0,30.10,South,174,1.0,5.0,59,0.00,FEW,,0.00,849.0,WeatherDisplay:10.37,2013-07-17 17:29:00,
2013-07-17 13:59:00,92.9,72.7,30.10,SSE,165,1.0,6.0,52,0.00,FEW,,0.00,823.0,WeatherDisplay:10.37,2013-07-17 17:59:00,
2013-07-17 14:29:00,93.1,75.1,30.09,ESE,117,1.0,5.0,56,0.00,FEW,,0.00,775.0,WeatherDisplay:10.37,2013-07-17 18:29:00,
2013-07-17 14:59:00,91.7,70.4,30.08,ESE,109,0.0,5.0,50,0.00,SCT,,0.00,722.0,WeatherDisplay:10.37,2013-07-17 18:59:00,
2013-07-17 15:29:00,92.7,72.0,30.07,South,170,1.0,5.0,51,0.00,FEW,,0.00,680.0,WeatherDisplay:10.37,2013-07-17 19:29:00,
2013-07-17 15:59:00,90.6,71.7,30.05,SSE,154,3.0,5.0,54,0.00,FEW,,0.00,599.0,WeatherDisplay:10.37,2013-07-17 19:59:00,
2013-07-17 16:29:00,91.0,72.0,30.03,South,175,0.0,7.0,54,0.00,FEW,,0.00,545.0,WeatherDisplay:10.37,2013-07-17 20:29:00,
2013-07-17 16:59:00,90.2,72.9,30.02,SE,144,2.0,8.0,57,0.00,FEW,,0.00,476.0,WeatherDisplay:10.37,2013-07-17 20:59:00,
2013-07-17 17:29:00,90.2,72.9,30.02,SSE,163,1.0,6.0,57,0.00,BKN,,0.00,111.0,WeatherDisplay:10.37,2013-07-17 21:29:00,
2013-07-17 17:59:00,89.0,72.8,30.01,SSE,161,1.0,7.0,59,0.00,BKN,,0.00,86.0,WeatherDisplay:10.37,2013-07-17 21:59:00,
2013-07-17 18:29:00,88.1,72.0,29.99,South,173,1.0,7.0,59,0.00,BKN,,0.00,54.0,WeatherDisplay:10.37,2013-07-17 22:29:00,
2013-07-17 18:59:00,87.3,73.7,29.99,South,171,0.0,7.0,64,0.00,BKN,,0.00,44.0,WeatherDisplay:10.37,2013-07-17 22:59:00,
2013-07-17 19:29:00,86.3,73.6,29.99,SSE,155,0.0,9.0,66,0.00,BKN,,0.00,23.0,WeatherDisplay:10.37,2013-07-17 23:29:00,
2013-07-17 19:59:00,84.9,74.5,30.00,South,176,0.0,7.0,71,0.00,BKN,,0.00,5.0,WeatherDisplay:10.37,2013-07-17 23:59:00,
2013-07-17 20:29:00,83.9,74.7,30.01,South,173,0.0,7.0,74,0.00,OVC,,0.00,0.0,WeatherDisplay:10.37,2013-07-18 00:29:00,
2013-07-17 20:59:00,83.3,74.1,30.01,SSE,166,5.0,9.0,74,0.00,CLR,,0.00,0.0,WeatherDisplay:10.37,2013-07-18 00:59:00,
2013-07-17 21:29:00,83.2,74.4,30.00,South,173,2.0,10.0,75,0.00,CLR,,0.00,0.0,WeatherDisplay:10.37,2013-07-18 01:29:00,
2013-07-17 21:59:00,82.0,74.8,30.01,South,169,0.0,9.0,79,0.00,CLR,,0.00,0.0,WeatherDisplay:10.37,2013-07-18 01:59:00,
2013-07-17 22:29:00,81.6,74.8,30.02,South,177,2.0,7.0,80,0.00,CLR,,0.00,0.0,WeatherDisplay:10.37,2013-07-18 02:29:00,
2013-07-17 22:59:00,81.7,74.1,30.01,SSE,165,1.0,12.0,78,0.00,CLR,,0.00,0.0,WeatherDisplay:10.37,2013-07-18 02:59:00,
2013-07-17 23:29:00,81.0,74.2,29.99,South,171,1.0,10.0,80,0.00,CLR,,0.00,0.0,WeatherDisplay:10.37,2013-07-18 03:29:00,